T Ville, Kentucky
Current Conditions -  °F | °C
As of 4:15 PM on Saturday 20 Dec 2014 (Local Time) from KGLW Reporting Station
Clear Clear  
Wind Chill: 40°   Ceiling: Unl
Heat Index: 40°   Visibility: 10mi
Dew Point: 28°   Wind: 3mph
Humidity: 62%   Direction: 240°WSW
Pressure: 30.24"   Gusts: NA
Location:  36.7279°N, 85.6843°W
Report Text: KGLW 202215Z AUTO 24003KT 10SM CLR 04/M02 A3024 RMK AO2 T00431025
Loading
Personal Weather Stations






























Interactive Weather Map New forecast layout! Learn more

10-Day Weather Forecast

Advertisements
Track Severe Weather on mobile